sensor_id;sensor_type;location;lat;lon;timestamp;pressure;altitude;pressure_sealevel;temperature;humidity
39613;BME280;25303;48.896;13.342;2024-01-25T00:04:30;93505.72;;;5.16;71.98
39613;BME280;25303;48.896;13.342;2024-01-25T00:14:34;93504.69;;;5.19;71.75
39613;BME280;25303;48.896;13.342;2024-01-25T00:24:38;93531.13;;;5.18;71.48
39613;BME280;25303;48.896;13.342;2024-01-25T00:34:43;93529.03;;;5.12;71.53
39613;BME280;25303;48.896;13.342;2024-01-25T00:44:46;93522.28;;;5.11;71.35
39613;BME280;25303;48.896;13.342;2024-01-25T00:54:51;93517.91;;;5.00;71.55
39613;BME280;25303;48.896;13.342;2024-01-25T01:04:55;93528.66;;;4.92;71.85
39613;BME280;25303;48.896;13.342;2024-01-25T01:14:59;93518.78;;;4.88;71.52
39613;BME280;25303;48.896;13.342;2024-01-25T01:25:03;93500.91;;;4.88;71.36
39613;BME280;25303;48.896;13.342;2024-01-25T01:35:08;93487.22;;;4.89;71.12
39613;BME280;25303;48.896;13.342;2024-01-25T01:45:11;93486.41;;;4.88;71.15
39613;BME280;25303;48.896;13.342;2024-01-25T01:55:16;93474.25;;;4.92;71.09
39613;BME280;25303;48.896;13.342;2024-01-25T02:05:20;93485.09;;;4.82;71.28
39613;BME280;25303;48.896;13.342;2024-01-25T02:15:24;93494.19;;;4.86;71.37
39613;BME280;25303;48.896;13.342;2024-01-25T02:25:28;93477.97;;;4.88;71.55
39613;BME280;25303;48.896;13.342;2024-01-25T02:35:32;93475.63;;;4.84;71.95
39613;BME280;25303;48.896;13.342;2024-01-25T02:45:36;93475.22;;;4.78;72.11
39613;BME280;25303;48.896;13.342;2024-01-25T02:55:40;93479.28;;;4.80;72.13
39613;BME280;25303;48.896;13.342;2024-01-25T03:05:44;93482.56;;;4.82;72.07
39613;BME280;25303;48.896;13.342;2024-01-25T03:15:47;93476.63;;;4.82;72.37
39613;BME280;25303;48.896;13.342;2024-01-25T03:25:52;93482.63;;;4.81;72.39
39613;BME280;25303;48.896;13.342;2024-01-25T03:35:55;93482.44;;;4.84;72.36
39613;BME280;25303;48.896;13.342;2024-01-25T03:45:59;93473.16;;;4.83;72.46
39613;BME280;25303;48.896;13.342;2024-01-25T03:56:02;93480.22;;;4.79;72.74
39613;BME280;25303;48.896;13.342;2024-01-25T04:06:07;93477.66;;;4.79;72.90
39613;BME280;25303;48.896;13.342;2024-01-25T04:16:13;93477.88;;;4.76;72.91
39613;BME280;25303;48.896;13.342;2024-01-25T04:26:18;93473.09;;;4.71;73.04
39613;BME280;25303;48.896;13.342;2024-01-25T04:36:21;93472.28;;;4.71;73.00
39613;BME280;25303;48.896;13.342;2024-01-25T04:46:25;93471.25;;;4.74;72.89
39613;BME280;25303;48.896;13.342;2024-01-25T04:56:28;93483.94;;;4.62;73.26
39613;BME280;25303;48.896;13.342;2024-01-25T05:06:33;93488.00;;;4.65;73.04
39613;BME280;25303;48.896;13.342;2024-01-25T05:16:36;93491.25;;;4.67;72.99
39613;BME280;25303;48.896;13.342;2024-01-25T05:26:40;93512.06;;;4.61;72.97
39613;BME280;25303;48.896;13.342;2024-01-25T05:36:43;93503.81;;;4.57;73.45
39613;BME280;25303;48.896;13.342;2024-01-25T05:46:47;93514.81;;;4.57;73.50
39613;BME280;25303;48.896;13.342;2024-01-25T05:56:50;93526.16;;;4.53;73.49
39613;BME280;25303;48.896;13.342;2024-01-25T06:06:54;93511.28;;;4.47;73.73
39613;BME280;25303;48.896;13.342;2024-01-25T06:16:57;93517.81;;;4.51;73.48
39613;BME280;25303;48.896;13.342;2024-01-25T06:27:02;93574.81;;;4.50;73.45
39613;BME280;25303;48.896;13.342;2024-01-25T06:37:05;93596.72;;;4.40;73.70
39613;BME280;25303;48.896;13.342;2024-01-25T06:47:09;93589.72;;;4.44;73.29
39613;BME280;25303;48.896;13.342;2024-01-25T06:57:12;93587.03;;;4.45;73.17
39613;BME280;25303;48.896;13.342;2024-01-25T07:07:17;93597.34;;;4.44;73.13
39613;BME280;25303;48.896;13.342;2024-01-25T07:17:20;93612.25;;;4.37;73.22
39613;BME280;25303;48.896;13.342;2024-01-25T07:27:25;93623.44;;;4.34;73.31
39613;BME280;25303;48.896;13.342;2024-01-25T07:37:28;93629.03;;;4.26;73.30
39613;BME280;25303;48.896;13.342;2024-01-25T07:47:32;93621.31;;;4.28;72.87
39613;BME280;25303;48.896;13.342;2024-01-25T07:57:35;93633.81;;;4.18;72.64
39613;BME280;25303;48.896;13.342;2024-01-25T08:07:39;93636.09;;;4.36;72.55
39613;BME280;25303;48.896;13.342;2024-01-25T08:17:43;93650.53;;;4.22;72.71
39613;BME280;25303;48.896;13.342;2024-01-25T08:27:47;93631.38;;;4.30;72.61
39613;BME280;25303;48.896;13.342;2024-01-25T08:37:51;93626.69;;;4.23;72.47
39613;BME280;25303;48.896;13.342;2024-01-25T08:47:55;93611.41;;;4.36;72.06
39613;BME280;25303;48.896;13.342;2024-01-25T08:57:58;93610.19;;;4.29;71.57
39613;BME280;25303;48.896;13.342;2024-01-25T09:08:03;93624.81;;;4.66;70.66
39613;BME280;25303;48.896;13.342;2024-01-25T09:18:06;93626.63;;;4.77;70.37
39613;BME280;25303;48.896;13.342;2024-01-25T09:28:11;93641.94;;;4.64;69.99
39613;BME280;25303;48.896;13.342;2024-01-25T09:38:14;93663.38;;;4.61;69.64
39613;BME280;25303;48.896;13.342;2024-01-25T09:48:19;93671.75;;;4.63;69.30
39613;BME280;25303;48.896;13.342;2024-01-25T09:58:22;93690.38;;;4.64;68.45
39613;BME280;25303;48.896;13.342;2024-01-25T10:08:28;93714.22;;;4.50;68.15
39613;BME280;25303;48.896;13.342;2024-01-25T10:18:34;93704.66;;;4.66;68.56
39613;BME280;25303;48.896;13.342;2024-01-25T10:28:39;93723.66;;;4.62;68.24
39613;BME280;25303;48.896;13.342;2024-01-25T10:38:44;93737.09;;;4.64;68.18
39613;BME280;25303;48.896;13.342;2024-01-25T10:48:52;93748.84;;;4.67;68.16
39613;BME280;25303;48.896;13.342;2024-01-25T10:58:55;93753.34;;;4.63;68.28
39613;BME280;25303;48.896;13.342;2024-01-25T11:09:05;93747.19;;;4.53;67.85
39613;BME280;25303;48.896;13.342;2024-01-25T11:19:08;93734.13;;;4.57;67.12
39613;BME280;25303;48.896;13.342;2024-01-25T11:29:14;93725.38;;;4.62;67.14
39613;BME280;25303;48.896;13.342;2024-01-25T11:39:18;93733.78;;;4.36;67.72
39613;BME280;25303;48.896;13.342;2024-01-25T11:49:24;93734.59;;;4.37;68.20
39613;BME280;25303;48.896;13.342;2024-01-25T11:59:28;93735.25;;;4.53;68.03
39613;BME280;25303;48.896;13.342;2024-01-25T12:09:32;93734.34;;;4.67;68.04
39613;BME280;25303;48.896;13.342;2024-01-25T12:19:35;93738.66;;;4.67;67.82
39613;BME280;25303;48.896;13.342;2024-01-25T12:29:40;93735.88;;;4.57;67.06
39613;BME280;25303;48.896;13.342;2024-01-25T12:39:44;93737.75;;;4.68;67.07
39613;BME280;25303;48.896;13.342;2024-01-25T12:49:49;93733.84;;;4.75;67.14
39613;BME280;25303;48.896;13.342;2024-01-25T12:59:52;93717.16;;;4.71;68.03
39613;BME280;25303;48.896;13.342;2024-01-25T13:09:57;93706.53;;;4.77;68.02
39613;BME280;25303;48.896;13.342;2024-01-25T13:20:00;93704.50;;;4.82;66.20
39613;BME280;25303;48.896;13.342;2024-01-25T13:30:05;93714.06;;;4.66;65.33
39613;BME280;25303;48.896;13.342;2024-01-25T13:40:09;93722.94;;;4.60;65.93
39613;BME280;25303;48.896;13.342;2024-01-25T13:50:13;93728.41;;;4.54;66.27
39613;BME280;25303;48.896;13.342;2024-01-25T14:00:17;93724.53;;;4.48;66.49
39613;BME280;25303;48.896;13.342;2024-01-25T14:10:22;93705.13;;;4.33;66.07
39613;BME280;25303;48.896;13.342;2024-01-25T14:20:25;93709.91;;;4.37;66.33
39613;BME280;25303;48.896;13.342;2024-01-25T14:30:29;93709.91;;;4.37;66.35
39613;BME280;25303;48.896;13.342;2024-01-25T14:40:32;93712.31;;;4.53;66.85
39613;BME280;25303;48.896;13.342;2024-01-25T14:50:57;93698.06;;;4.77;65.75
39613;BME280;25303;48.896;13.342;2024-01-25T15:01:00;93696.00;;;4.69;64.29
39613;BME280;25303;48.896;13.342;2024-01-25T15:11:04;93682.53;;;4.54;64.16
39613;BME280;25303;48.896;13.342;2024-01-25T15:21:08;93678.09;;;4.30;64.02
39613;BME280;25303;48.896;13.342;2024-01-25T15:31:12;93667.56;;;4.22;63.99
39613;BME280;25303;48.896;13.342;2024-01-25T15:41:15;93689.72;;;4.07;64.24
39613;BME280;25303;48.896;13.342;2024-01-25T15:51:23;93689.91;;;3.91;64.52
39613;BME280;25303;48.896;13.342;2024-01-25T16:01:26;93682.81;;;4.09;64.01
39613;BME280;25303;48.896;13.342;2024-01-25T16:11:30;93693.59;;;4.00;63.82
39613;BME280;25303;48.896;13.342;2024-01-25T16:21:33;93682.13;;;3.92;64.31
39613;BME280;25303;48.896;13.342;2024-01-25T16:31:38;93691.28;;;3.82;64.53
39613;BME280;25303;48.896;13.342;2024-01-25T16:41:41;93688.66;;;3.69;64.93
39613;BME280;25303;48.896;13.342;2024-01-25T16:51:45;93700.03;;;3.63;65.07
39613;BME280;25303;48.896;13.342;2024-01-25T17:01:48;93701.13;;;3.59;65.27
39613;BME280;25303;48.896;13.342;2024-01-25T17:11:53;93707.59;;;3.50;65.66
39613;BME280;25303;48.896;13.342;2024-01-25T17:21:56;93699.00;;;3.39;66.19
39613;BME280;25303;48.896;13.342;2024-01-25T17:32:00;93699.66;;;3.28;66.85
39613;BME280;25303;48.896;13.342;2024-01-25T17:42:03;93696.44;;;3.24;67.23
39613;BME280;25303;48.896;13.342;2024-01-25T17:52:08;93684.91;;;3.18;67.04
39613;BME280;25303;48.896;13.342;2024-01-25T18:02:14;93702.28;;;3.12;67.39
39613;BME280;25303;48.896;13.342;2024-01-25T18:12:18;93715.44;;;3.04;67.45
39613;BME280;25303;48.896;13.342;2024-01-25T18:22:21;93712.16;;;3.02;67.58
39613;BME280;25303;48.896;13.342;2024-01-25T18:32:25;93723.44;;;2.98;68.03
39613;BME280;25303;48.896;13.342;2024-01-25T18:42:28;93723.69;;;2.93;68.31
39613;BME280;25303;48.896;13.342;2024-01-25T18:52:33;93736.41;;;2.93;68.53
39613;BME280;25303;48.896;13.342;2024-01-25T19:02:36;93734.88;;;2.91;68.72
39613;BME280;25303;48.896;13.342;2024-01-25T19:12:41;93726.78;;;2.84;68.83
39613;BME280;25303;48.896;13.342;2024-01-25T19:22:44;93731.84;;;2.69;68.95
39613;BME280;25303;48.896;13.342;2024-01-25T19:32:50;93723.81;;;2.61;69.19
39613;BME280;25303;48.896;13.342;2024-01-25T19:42:53;93730.97;;;2.54;69.35
39613;BME280;25303;48.896;13.342;2024-01-25T19:52:58;93728.13;;;2.45;69.49
39613;BME280;25303;48.896;13.342;2024-01-25T20:03:01;93716.03;;;2.34;69.88
39613;BME280;25303;48.896;13.342;2024-01-25T20:13:06;93714.66;;;2.28;70.12
39613;BME280;25303;48.896;13.342;2024-01-25T20:23:09;93728.03;;;2.16;70.66
39613;BME280;25303;48.896;13.342;2024-01-25T20:33:15;93718.03;;;2.12;71.28
39613;BME280;25303;48.896;13.342;2024-01-25T20:43:18;93703.69;;;2.11;71.23
39613;BME280;25303;48.896;13.342;2024-01-25T20:53:22;93697.06;;;2.09;71.21
39613;BME280;25303;48.896;13.342;2024-01-25T21:03:27;93711.84;;;2.02;71.29
39613;BME280;25303;48.896;13.342;2024-01-25T21:13:32;93707.91;;;1.96;71.87
39613;BME280;25303;48.896;13.342;2024-01-25T21:23:35;93691.78;;;1.97;71.90
39613;BME280;25303;48.896;13.342;2024-01-25T21:33:40;93688.50;;;1.95;72.29
39613;BME280;25303;48.896;13.342;2024-01-25T21:43:43;93699.81;;;1.90;72.32
39613;BME280;25303;48.896;13.342;2024-01-25T21:53:48;93699.56;;;1.94;72.70
39613;BME280;25303;48.896;13.342;2024-01-25T22:03:53;93691.78;;;1.97;73.00
39613;BME280;25303;48.896;13.342;2024-01-25T22:13:58;93685.78;;;1.99;73.27
39613;BME280;25303;48.896;13.342;2024-01-25T22:24:00;93689.78;;;2.03;73.13
39613;BME280;25303;48.896;13.342;2024-01-25T22:34:06;93685.53;;;2.03;73.31
39613;BME280;25303;48.896;13.342;2024-01-25T22:44:09;93682.91;;;2.05;73.61
39613;BME280;25303;48.896;13.342;2024-01-25T22:54:13;93691.25;;;2.07;73.89
39613;BME280;25303;48.896;13.342;2024-01-25T23:04:16;93680.94;;;2.10;73.87
39613;BME280;25303;48.896;13.342;2024-01-25T23:14:20;93675.75;;;2.11;73.59
39613;BME280;25303;48.896;13.342;2024-01-25T23:24:24;93675.91;;;2.08;74.06
39613;BME280;25303;48.896;13.342;2024-01-25T23:34:28;93670.13;;;2.06;74.08
39613;BME280;25303;48.896;13.342;2024-01-25T23:44:31;93668.66;;;2.02;74.37
39613;BME280;25303;48.896;13.342;2024-01-25T23:54:35;93666.03;;;2.04;74.87
